Time;durP1;ratioP1;P1;durP2;ratioP2;P2;SDS_P1;SDS_P2;PMS_P1;PMS_P2;Temp;Humidity;BMP_temperature;BMP_pressure;BME280_temperature;BME280_humidity;BME280_pressure;Samples;Min_cycle;Max_cycle;Signal;HPM_P1;HPM_P2
2021/05/27 00:02:14;;;;;;;3.30;0.80;;;13.60;68.10;;;;;;5082878;28;20040;-48
2021/05/27 00:04:40;;;;;;;1.80;0.70;;;13.50;68.20;;;;;;5082636;28;20040;-47
2021/05/27 00:07:05;;;;;;;1.95;0.70;;;13.60;68.20;;;;;;5084527;28;20385;-46
2021/05/27 00:09:31;;;;;;;1.58;0.93;;;13.60;68.20;;;;;;5083066;28;20036;-45
2021/05/27 00:11:56;;;;;;;1.60;0.80;;;13.50;68.30;;;;;;5082831;28;20037;-46
2021/05/27 00:14:22;;;;;;;3.05;0.85;;;13.60;68.20;;;;;;5082956;28;20028;-46
2021/05/27 00:16:48;;;;;;;1.08;0.60;;;13.50;68.30;;;;;;5082749;28;20041;-46
2021/05/27 00:19:13;;;;;;;1.40;0.90;;;13.60;68.00;;;;;;5082525;28;20316;-44
2021/05/27 00:21:39;;;;;;;1.77;0.95;;;13.60;67.80;;;;;;5083878;28;20056;-45
2021/05/27 00:24:05;;;;;;;1.40;0.75;;;13.60;67.90;;;;;;5082393;28;20029;-45
2021/05/27 00:26:31;;;;;;;1.27;0.70;;;13.60;68.10;;;;;;5082367;28;20051;-45
2021/05/27 00:28:56;;;;;;;1.00;0.88;;;13.50;68.40;;;;;;5085336;28;20327;-45
2021/05/27 00:31:22;;;;;;;1.27;0.70;;;13.60;68.10;;;;;;5087893;28;20036;-45
2021/05/27 00:33:47;;;;;;;1.17;0.65;;;13.60;68.20;;;;;;5090666;28;20032;-46
2021/05/27 00:36:13;;;;;;;1.27;1.02;;;13.60;68.50;;;;;;5089383;28;20037;-45
2021/05/27 00:38:38;;;;;;;1.73;0.88;;;13.50;68.40;;;;;;5089479;28;20229;-46
2021/05/27 00:41:04;;;;;;;1.98;0.95;;;13.50;68.30;;;;;;5089268;28;20024;-46
2021/05/27 00:43:29;;;;;;;1.83;0.75;;;13.50;68.60;;;;;;5088639;28;20273;-47
2021/05/27 00:45:55;;;;;;;2.20;0.80;;;13.40;68.80;;;;;;5090433;28;20032;-46
2021/05/27 00:51:05;;;;;;;1.08;0.80;;;13.50;68.80;;;;;;5089279;28;20031;-48
2021/05/27 00:53:30;;;;;;;1.90;1.00;;;13.40;68.50;;;;;;5087931;28;20034;-46
2021/05/27 00:55:56;;;;;;;1.80;0.73;;;13.40;68.60;;;;;;5087851;28;20020;-45
2021/05/27 00:58:22;;;;;;;2.45;0.80;;;13.40;68.50;;;;;;5087928;28;20032;-47
2021/05/27 01:00:47;;;;;;;2.30;0.80;;;13.40;68.40;;;;;;5090344;28;20044;-45
2021/05/27 01:03:13;;;;;;;1.45;0.77;;;13.30;68.30;;;;;;5089186;28;20048;-47
2021/05/27 01:05:39;;;;;;;1.27;0.60;;;13.30;68.40;;;;;;5088699;28;20111;-47
2021/05/27 01:08:05;;;;;;;1.55;0.70;;;13.30;68.70;;;;;;5088607;28;20027;-45
2021/05/27 01:10:31;;;;;;;1.88;0.60;;;13.30;68.40;;;;;;5088589;28;20056;-47
2021/05/27 01:12:56;;;;;;;2.05;0.63;;;13.30;68.20;;;;;;5090850;28;20028;-45
2021/05/27 01:15:31;;;;;;;1.60;0.70;;;13.30;68.20;;;;;;5088833;28;20038;-46
2021/05/27 01:18:09;;;;;;;1.33;0.70;;;13.30;68.10;;;;;;5088666;28;20044;-46
2021/05/27 01:20:35;;;;;;;1.70;0.80;;;13.30;68.10;;;;;;5087322;28;20041;-45
2021/05/27 01:23:01;;;;;;;1.98;0.90;;;13.30;68.40;;;;;;5088411;28;20148;-45
2021/05/27 01:25:26;;;;;;;1.23;0.60;;;13.30;68.50;;;;;;5088451;28;20036;-46
2021/05/27 01:27:52;;;;;;;1.08;0.60;;;13.30;68.40;;;;;;5090396;28;20031;-46
2021/05/27 01:30:18;;;;;;;1.35;0.80;;;13.30;68.50;;;;;;5088941;28;20073;-49
2021/05/27 01:32:43;;;;;;;1.13;0.63;;;13.30;68.50;;;;;;5088492;28;20044;-47
2021/05/27 01:35:14;;;;;;;2.40;0.63;;;13.10;68.30;;;;;;5088428;28;20041;-45
2021/05/27 01:37:39;;;;;;;1.02;0.65;;;13.20;68.70;;;;;;5088710;28;20059;-46
2021/05/27 01:40:06;;;;;;;1.42;0.70;;;13.20;68.70;;;;;;5088350;28;20324;-48
2021/05/27 01:42:31;;;;;;;1.15;0.63;;;13.20;68.80;;;;;;5085707;28;20193;-48
2021/05/27 01:44:57;;;;;;;2.35;0.63;;;13.30;68.90;;;;;;5085555;28;20047;-45
2021/05/27 01:47:22;;;;;;;0.98;0.63;;;13.20;68.70;;;;;;5085097;28;20033;-46
2021/05/27 01:49:48;;;;;;;0.73;0.60;;;13.20;68.80;;;;;;5085192;28;20347;-45
2021/05/27 01:52:13;;;;;;;2.45;0.70;;;13.20;68.90;;;;;;5084881;28;20033;-45
2021/05/27 01:54:39;;;;;;;1.13;0.68;;;13.20;68.90;;;;;;5085805;28;20033;-46
2021/05/27 01:57:05;;;;;;;2.10;0.70;;;13.10;69.00;;;;;;5083733;28;20032;-48
2021/05/27 01:59:31;;;;;;;1.10;0.60;;;13.20;68.80;;;;;;5083875;28;20336;-46
2021/05/27 02:01:57;;;;;;;1.50;0.63;;;13.10;68.90;;;;;;5084916;28;20047;-45
2021/05/27 02:04:23;;;;;;;2.15;0.80;;;13.10;68.90;;;;;;5084758;28;20028;-45
2021/05/27 02:06:48;;;;;;;2.28;0.90;;;13.10;68.80;;;;;;5086350;28;20257;-45
2021/05/27 02:09:14;;;;;;;1.45;0.75;;;13.10;68.90;;;;;;5085186;28;20092;-45
2021/05/27 02:11:44;;;;;;;1.60;0.55;;;13.10;69.10;;;;;;5084777;28;20060;-47
2021/05/27 02:14:10;;;;;;;0.90;0.63;;;13.10;69.10;;;;;;5084020;28;20032;-48
2021/05/27 02:16:36;;;;;;;1.42;0.85;;;13.10;69.50;;;;;;5084744;28;20035;-46
2021/05/27 02:19:02;;;;;;;1.52;0.80;;;13.00;69.40;;;;;;5086231;28;20095;-46
2021/05/27 02:21:27;;;;;;;1.58;0.80;;;13.00;69.30;;;;;;5084636;28;20283;-45
2021/05/27 02:23:54;;;;;;;1.25;0.80;;;13.10;69.30;;;;;;5083871;28;20212;-47
2021/05/27 02:26:20;;;;;;;0.63;0.60;;;13.00;69.40;;;;;;5083436;28;20045;-46
2021/05/27 02:28:45;;;;;;;2.00;0.63;;;13.00;69.50;;;;;;5084432;28;20055;-45
2021/05/27 02:31:11;;;;;;;3.50;0.70;;;13.10;69.40;;;;;;5085980;28;20063;-45
2021/05/27 02:33:37;;;;;;;2.35;0.70;;;13.10;69.20;;;;;;5084493;28;20212;-47
2021/05/27 02:36:03;;;;;;;1.15;0.65;;;13.10;69.50;;;;;;5084368;28;20056;-47
2021/05/27 02:38:28;;;;;;;2.03;0.70;;;13.10;69.60;;;;;;5084526;28;20039;-46
2021/05/27 02:40:54;;;;;;;1.88;0.80;;;13.00;69.70;;;;;;5084073;28;20194;-47
2021/05/27 02:43:19;;;;;;;1.98;0.70;;;13.10;69.70;;;;;;5084235;28;20027;-45
2021/05/27 02:45:45;;;;;;;1.65;0.70;;;13.10;69.70;;;;;;5085924;28;20028;-45
2021/05/27 02:48:10;;;;;;;1.85;0.80;;;13.10;69.60;;;;;;5084446;28;20310;-47
2021/05/27 02:50:36;;;;;;;1.27;0.70;;;13.10;69.70;;;;;;5084354;28;20040;-45
2021/05/27 02:53:01;;;;;;;1.30;0.77;;;13.10;69.60;;;;;;5082656;28;20376;-46
2021/05/27 02:55:27;;;;;;;1.38;1.10;;;13.10;69.70;;;;;;5084065;28;20321;-46
2021/05/27 02:57:53;;;;;;;1.00;0.70;;;13.00;69.50;;;;;;5085943;28;20021;-46
2021/05/27 03:00:19;;;;;;;1.52;0.80;;;13.00;69.80;;;;;;5084259;28;20072;-46
2021/05/27 03:02:44;;;;;;;1.60;0.93;;;12.90;69.80;;;;;;5084011;28;20249;-48
2021/05/27 03:05:10;;;;;;;1.65;0.80;;;13.00;69.70;;;;;;5083909;28;20039;-45
2021/05/27 03:07:36;;;;;;;1.55;0.80;;;13.00;69.80;;;;;;5084070;28;20032;-48
2021/05/27 03:10:01;;;;;;;1.48;0.73;;;12.90;69.70;;;;;;5085486;28;20358;-48
2021/05/27 03:12:27;;;;;;;1.77;0.80;;;12.90;69.90;;;;;;5083708;28;20036;-45
2021/05/27 03:14:52;;;;;;;1.52;0.90;;;13.00;69.90;;;;;;5083653;28;20054;-46
2021/05/27 03:17:18;;;;;;;1.33;0.80;;;13.00;69.80;;;;;;5083612;28;20048;-46
2021/05/27 03:19:43;;;;;;;1.73;0.90;;;13.00;70.00;;;;;;5083320;28;20103;-45
2021/05/27 03:22:09;;;;;;;1.58;0.80;;;13.00;69.80;;;;;;5085404;28;20355;-50
2021/05/27 03:24:34;;;;;;;1.45;0.75;;;13.00;69.80;;;;;;5083462;28;20040;-45
2021/05/27 03:27:00;;;;;;;1.20;0.75;;;13.10;69.90;;;;;;5083266;28;20059;-46
2021/05/27 03:29:26;;;;;;;2.55;1.00;;;13.00;70.00;;;;;;5083125;28;20172;-46
2021/05/27 03:31:51;;;;;;;2.08;0.82;;;13.00;70.00;;;;;;5082587;28;20040;-46
2021/05/27 03:34:17;;;;;;;1.63;0.95;;;13.00;70.10;;;;;;5083379;28;20024;-46
2021/05/27 03:36:42;;;;;;;1.63;0.90;;;12.90;70.20;;;;;;5084612;28;20055;-46
2021/05/27 03:39:08;;;;;;;1.90;0.85;;;12.90;70.00;;;;;;5082783;28;20097;-46
2021/05/27 03:41:33;;;;;;;2.67;1.33;;;12.90;69.90;;;;;;5083165;28;20037;-46
2021/05/27 03:43:59;;;;;;;1.35;0.80;;;12.90;69.90;;;;;;5083071;28;20049;-45
2021/05/27 03:46:24;;;;;;;1.02;0.60;;;12.90;69.70;;;;;;5083039;28;20043;-46
2021/05/27 03:48:50;;;;;;;1.15;0.77;;;12.90;69.40;;;;;;5083336;28;20079;-46
2021/05/27 03:51:16;;;;;;;2.15;0.75;;;12.90;69.70;;;;;;5083007;28;20037;-46
2021/05/27 03:53:41;;;;;;;4.47;1.17;;;12.90;69.70;;;;;;5082647;28;20039;-46
2021/05/27 03:56:07;;;;;;;2.25;0.85;;;12.90;70.40;;;;;;5082949;28;20036;-46
2021/05/27 04:01:18;;;;;;;2.22;1.00;;;12.90;70.00;;;;;;5083155;28;20020;-45
2021/05/27 04:09:12;;;;;;;2.35;1.40;;;12.90;69.90;;;;;;5082973;28;20044;-46
2021/05/27 04:11:37;;;;;;;3.08;0.88;;;12.80;69.90;;;;;;5082967;28;20033;-46
2021/05/27 04:14:03;;;;;;;1.08;0.65;;;12.90;69.90;;;;;;5081758;28;20041;-46
2021/05/27 04:16:28;;;;;;;1.10;0.73;;;12.80;69.90;;;;;;5082450;28;20039;-46
2021/05/27 04:18:54;;;;;;;1.27;0.70;;;12.80;69.80;;;;;;5084369;28;20092;-46
2021/05/27 04:21:20;;;;;;;1.60;0.90;;;12.90;70.00;;;;;;5082685;28;20052;-46
2021/05/27 04:23:45;;;;;;;3.00;1.00;;;12.90;69.90;;;;;;5082730;28;20032;-46
2021/05/27 04:26:15;;;;;;;1.83;0.90;;;12.90;70.10;;;;;;5082361;28;20036;-46
2021/05/27 04:28:41;;;;;;;1.98;0.90;;;12.90;69.90;;;;;;5082569;28;20033;-47
2021/05/27 04:31:09;;;;;;;1.65;0.80;;;12.90;70.10;;;;;;5083152;28;20037;-46
2021/05/27 04:33:38;;;;;;;1.17;0.80;;;12.90;70.30;;;;;;5081864;28;20043;-46
2021/05/27 04:36:05;;;;;;;1.67;0.80;;;12.90;70.20;;;;;;5081008;28;20033;-45
2021/05/27 04:38:30;;;;;;;2.22;0.80;;;12.90;70.40;;;;;;5082577;28;20134;-45
2021/05/27 04:40:56;;;;;;;3.13;0.88;;;12.90;70.20;;;;;;5082375;28;20042;-47
2021/05/27 04:43:23;;;;;;;2.72;0.90;;;12.90;70.20;;;;;;5081959;28;20025;-45
2021/05/27 04:45:48;;;;;;;1.92;0.85;;;12.90;70.20;;;;;;5083821;28;20032;-45
2021/05/27 04:48:15;;;;;;;2.72;1.20;;;12.90;70.30;;;;;;5082851;28;20032;-46
2021/05/27 04:50:41;;;;;;;2.28;0.80;;;12.90;70.30;;;;;;5082258;28;20082;-46
2021/05/27 04:53:07;;;;;;;1.80;1.00;;;12.90;70.30;;;;;;5082248;28;20033;-46
2021/05/27 04:55:33;;;;;;;2.08;0.95;;;12.90;70.40;;;;;;5081969;28;20036;-46
2021/05/27 04:57:59;;;;;;;1.02;0.77;;;12.90;70.40;;;;;;5083895;28;20021;-46
2021/05/27 05:00:24;;;;;;;1.38;0.90;;;12.90;70.50;;;;;;5082537;28;20040;-47
2021/05/27 05:02:51;;;;;;;2.17;0.98;;;12.90;70.40;;;;;;5082314;28;20047;-46
2021/05/27 05:05:17;;;;;;;1.77;1.00;;;12.90;70.50;;;;;;5082368;28;20060;-46
2021/05/27 05:07:42;;;;;;;1.70;1.10;;;12.90;70.30;;;;;;5080880;28;20033;-46
2021/05/27 05:10:12;;;;;;;2.28;1.00;;;12.90;70.50;;;;;;5082476;28;20031;-46
2021/05/27 05:12:45;;;;;;;2.00;0.90;;;13.00;70.60;;;;;;5081883;28;20201;-46
2021/05/27 05:15:17;;;;;;;1.55;1.00;;;13.00;70.50;;;;;;5082530;28;20037;-46
2021/05/27 05:17:46;;;;;;;3.05;1.00;;;13.00;70.60;;;;;;5085792;28;20052;-46
2021/05/27 05:20:12;;;;;;;1.77;1.00;;;13.00;70.60;;;;;;5085902;28;20035;-45
2021/05/27 05:22:37;;;;;;;1.65;0.90;;;13.10;70.60;;;;;;5085555;28;20324;-46
2021/05/27 05:25:03;;;;;;;2.30;0.93;;;13.10;70.50;;;;;;5087440;28;20052;-46
2021/05/27 05:27:29;;;;;;;1.30;0.82;;;13.10;70.60;;;;;;5085943;28;20037;-45
2021/05/27 05:29:54;;;;;;;2.58;0.85;;;13.10;70.50;;;;;;5085890;28;20202;-47
2021/05/27 05:32:20;;;;;;;3.28;1.00;;;13.10;70.70;;;;;;5085500;28;20052;-46
2021/05/27 05:34:45;;;;;;;2.60;1.00;;;13.10;70.60;;;;;;5085516;28;20028;-45
2021/05/27 05:37:11;;;;;;;2.17;1.05;;;13.10;70.60;;;;;;5087176;28;20031;-47
2021/05/27 05:39:36;;;;;;;1.20;0.90;;;13.10;70.70;;;;;;5085090;28;20037;-47
2021/05/27 05:42:02;;;;;;;1.23;0.80;;;13.10;70.80;;;;;;5085233;28;20032;-45
2021/05/27 05:44:27;;;;;;;2.33;1.20;;;13.10;70.90;;;;;;5085254;28;20040;-49
2021/05/27 05:46:53;;;;;;;2.55;1.40;;;13.20;70.90;;;;;;5085193;28;20056;-46
2021/05/27 05:49:18;;;;;;;1.67;1.00;;;13.10;70.90;;;;;;5083759;28;20024;-47
2021/05/27 05:51:44;;;;;;;3.55;0.90;;;13.10;71.00;;;;;;5086874;28;20032;-46
2021/05/27 05:54:09;;;;;;;1.65;1.00;;;13.10;70.70;;;;;;5085150;28;20350;-45
2021/05/27 05:56:36;;;;;;;1.77;0.90;;;13.10;70.90;;;;;;5084776;28;20048;-46
2021/05/27 05:59:02;;;;;;;2.38;0.90;;;13.20;70.90;;;;;;5085006;28;20043;-47
2021/05/27 06:01:27;;;;;;;1.50;1.10;;;13.20;71.20;;;;;;5085023;28;20220;-46
2021/05/27 06:03:53;;;;;;;1.27;0.80;;;13.20;71.00;;;;;;5085299;28;20366;-45
2021/05/27 06:06:18;;;;;;;1.17;0.80;;;13.20;71.00;;;;;;5085261;28;20036;-46
2021/05/27 06:08:44;;;;;;;4.05;0.77;;;13.30;70.70;;;;;;5084980;28;20033;-46
2021/05/27 06:11:09;;;;;;;1.95;1.00;;;13.30;70.70;;;;;;5084526;28;20027;-45
2021/05/27 06:13:35;;;;;;;2.42;0.80;;;13.20;70.50;;;;;;5084899;28;20024;-47
2021/05/27 06:16:01;;;;;;;1.65;0.80;;;13.20;70.50;;;;;;5085015;28;20228;-45
2021/05/27 06:18:26;;;;;;;1.65;0.70;;;13.20;70.80;;;;;;5084786;28;20043;-48
2021/05/27 06:20:52;;;;;;;1.58;0.80;;;13.20;70.70;;;;;;5083322;28;20054;-45
2021/05/27 06:23:17;;;;;;;2.30;0.90;;;13.20;70.70;;;;;;5084107;28;20094;-45
2021/05/27 06:25:43;;;;;;;1.60;0.80;;;13.20;70.70;;;;;;5084386;28;20059;-47
2021/05/27 06:28:09;;;;;;;1.80;0.90;;;13.20;71.00;;;;;;5085655;28;20036;-48
2021/05/27 06:30:34;;;;;;;1.23;0.68;;;13.20;70.70;;;;;;5084506;28;20047;-47
2021/05/27 06:33:01;;;;;;;1.63;0.90;;;13.10;70.50;;;;;;5084448;28;20039;-48
2021/05/27 06:35:26;;;;;;;1.65;0.70;;;13.10;71.10;;;;;;5084228;28;20033;-46
2021/05/27 06:37:52;;;;;;;1.20;0.80;;;13.10;70.80;;;;;;5084499;28;20039;-47
2021/05/27 06:40:19;;;;;;;2.00;0.80;;;13.10;70.80;;;;;;5084681;28;20084;-46
2021/05/27 06:42:45;;;;;;;3.78;0.88;;;13.10;70.80;;;;;;5085943;28;20024;-45
2021/05/27 06:45:11;;;;;;;1.50;1.05;;;13.20;70.60;;;;;;5084374;28;20044;-46
2021/05/27 06:47:37;;;;;;;2.30;0.90;;;13.10;71.00;;;;;;5084155;28;20074;-49
2021/05/27 06:50:03;;;;;;;1.27;0.73;;;13.10;70.50;;;;;;5084188;28;20033;-45
2021/05/27 06:52:29;;;;;;;2.40;0.70;;;13.10;70.70;;;;;;5084152;28;20021;-48
2021/05/27 06:54:54;;;;;;;0.93;0.80;;;13.20;71.20;;;;;;5085506;28;20059;-45
2021/05/27 06:57:20;;;;;;;1.58;0.80;;;13.20;71.20;;;;;;5083873;28;20036;-46
2021/05/27 06:59:46;;;;;;;1.48;0.90;;;13.30;71.10;;;;;;5083735;28;20037;-46
2021/05/27 07:02:11;;;;;;;0.80;0.55;;;13.30;71.30;;;;;;5083524;28;20090;-46
2021/05/27 07:04:37;;;;;;;1.08;0.77;;;13.20;70.50;;;;;;5083414;28;20320;-46
2021/05/27 07:07:02;;;;;;;1.08;0.70;;;13.20;70.80;;;;;;5084048;28;19905;-45
2021/05/27 07:09:28;;;;;;;1.85;0.70;;;13.30;71.10;;;;;;5082592;28;20036;-46
2021/05/27 07:11:53;;;;;;;1.15;0.70;;;13.30;71.40;;;;;;5083529;28;20228;-46
2021/05/27 07:14:19;;;;;;;1.80;0.70;;;13.40;71.30;;;;;;5083325;28;20089;-45
2021/05/27 07:16:44;;;;;;;1.20;0.70;;;13.40;71.40;;;;;;5082244;28;20312;-46
2021/05/27 07:19:10;;;;;;;0.90;0.70;;;13.30;70.70;;;;;;5084404;28;20089;-45
2021/05/27 07:21:35;;;;;;;4.20;0.90;;;13.40;70.90;;;;;;5083296;28;20371;-46
2021/05/27 07:24:01;;;;;;;1.17;0.70;;;13.40;71.00;;;;;;5082264;28;20095;-47
2021/05/27 07:26:27;;;;;;;1.00;0.60;;;13.50;71.10;;;;;;5083651;28;20104;-46
2021/05/27 07:28:53;;;;;;;1.20;0.63;;;13.50;71.20;;;;;;5083008;28;20043;-45
2021/05/27 07:31:18;;;;;;;1.35;0.60;;;13.50;71.30;;;;;;5083070;28;20350;-46
2021/05/27 07:33:44;;;;;;;2.35;0.60;;;13.50;71.30;;;;;;5084729;28;20032;-46
2021/05/27 07:36:09;;;;;;;0.95;0.55;;;13.50;71.20;;;;;;5083559;28;20047;-46
2021/05/27 07:38:35;;;;;;;0.88;0.60;;;13.60;71.20;;;;;;5082367;28;20344;-46
2021/05/27 07:41:01;;;;;;;1.85;0.70;;;13.60;70.90;;;;;;5082952;28;20028;-47
2021/05/27 07:43:26;;;;;;;1.13;0.70;;;13.60;70.40;;;;;;5083365;28;20020;-46
2021/05/27 07:45:52;;;;;;;1.20;0.65;;;13.60;70.20;;;;;;5084864;28;20039;-45
2021/05/27 07:48:17;;;;;;;0.80;0.60;;;13.70;70.30;;;;;;5083240;28;20040;-46
2021/05/27 07:50:43;;;;;;;2.20;0.70;;;13.60;70.30;;;;;;5082669;28;20099;-45
2021/05/27 07:53:11;;;;;;;1.20;0.70;;;13.60;70.20;;;;;;5083082;28;20079;-45
2021/05/27 07:55:37;;;;;;;1.45;0.68;;;13.70;69.90;;;;;;5082743;28;20032;-46
2021/05/27 07:58:02;;;;;;;1.20;0.80;;;13.60;69.80;;;;;;5084640;28;20105;-46
2021/05/27 08:00:28;;;;;;;0.80;0.50;;;13.60;70.00;;;;;;5083293;28;20041;-49
2021/05/27 08:02:53;;;;;;;1.35;0.60;;;13.50;69.80;;;;;;5082768;28;20259;-47
2021/05/27 08:05:20;;;;;;;1.48;0.95;;;13.40;69.90;;;;;;5082626;28;20033;-45
2021/05/27 08:07:46;;;;;;;1.05;0.70;;;13.50;69.80;;;;;;5082990;28;20059;-47
2021/05/27 08:10:12;;;;;;;1.80;0.68;;;13.50;69.90;;;;;;5084218;28;20016;-46
2021/05/27 08:12:38;;;;;;;1.70;0.77;;;13.50;69.40;;;;;;5082851;28;20048;-46
2021/05/27 08:15:05;;;;;;;2.38;0.80;;;13.50;69.90;;;;;;5082863;28;20041;-46
2021/05/27 08:17:31;;;;;;;2.50;1.00;;;13.50;70.00;;;;;;5083241;28;20099;-47
2021/05/27 08:19:56;;;;;;;0.70;0.60;;;13.60;70.00;;;;;;5082746;28;20035;-46
2021/05/27 08:22:22;;;;;;;1.55;0.90;;;13.70;70.10;;;;;;5082315;28;20052;-46
2021/05/27 08:24:47;;;;;;;1.98;1.00;;;13.80;69.80;;;;;;5084353;28;20032;-46
2021/05/27 08:27:13;;;;;;;1.33;0.90;;;13.80;69.80;;;;;;5082944;28;20052;-46
2021/05/27 08:29:38;;;;;;;2.72;0.98;;;13.80;69.40;;;;;;5082610;28;20220;-45
2021/05/27 08:32:07;;;;;;;2.40;1.10;;;13.80;69.40;;;;;;5082603;28;20033;-46
2021/05/27 08:34:33;;;;;;;2.25;1.00;;;13.90;69.10;;;;;;5082562;28;20020;-46
2021/05/27 08:36:58;;;;;;;3.30;0.90;;;13.80;68.80;;;;;;5084173;28;20092;-45
2021/05/27 08:39:24;;;;;;;2.50;1.00;;;13.80;68.50;;;;;;5082706;28;20032;-46
2021/05/27 08:41:49;;;;;;;4.03;1.10;;;13.90;68.90;;;;;;5081506;28;20099;-46
2021/05/27 08:44:15;;;;;;;1.58;1.00;;;13.90;68.90;;;;;;5082000;28;20033;-46
2021/05/27 08:46:41;;;;;;;1.83;0.90;;;13.80;68.90;;;;;;5082365;28;20047;-46
2021/05/27 08:49:06;;;;;;;2.90;1.10;;;13.80;68.10;;;;;;5084710;28;20032;-46
2021/05/27 08:51:35;;;;;;;1.60;0.90;;;13.80;67.80;;;;;;5085662;28;20056;-45
2021/05/27 08:54:04;;;;;;;1.20;0.90;;;13.80;67.80;;;;;;5086578;28;20036;-46
2021/05/27 08:56:29;;;;;;;1.88;0.90;;;13.80;68.30;;;;;;5086351;28;20043;-45
2021/05/27 08:58:55;;;;;;;1.42;0.85;;;13.80;68.00;;;;;;5086436;28;20037;-44
2021/05/27 09:01:23;;;;;;;3.30;1.00;;;13.90;67.40;;;;;;5086134;28;20033;-46
2021/05/27 09:03:49;;;;;;;1.60;0.90;;;13.80;67.40;;;;;;5087967;28;20365;-46
2021/05/27 09:06:15;;;;;;;1.52;0.90;;;13.90;66.50;;;;;;5086396;28;20232;-46
2021/05/27 09:08:40;;;;;;;1.75;1.05;;;13.90;66.70;;;;;;5085928;28;20033;-46
2021/05/27 09:11:14;;;;;;;6.13;1.30;;;14.00;67.10;;;;;;5085915;28;20345;-46
2021/05/27 09:13:59;;;;;;;2.72;0.90;;;14.00;67.30;;;;;;5086380;28;20032;-46
2021/05/27 09:16:28;;;;;;;2.45;0.90;;;14.00;66.70;;;;;;5085708;28;20043;-46
2021/05/27 09:18:54;;;;;;;3.85;1.20;;;14.00;67.00;;;;;;5087850;28;20052;-47
2021/05/27 09:21:36;;;;;;;2.03;1.17;;;14.00;66.50;;;;;;5085837;28;20056;-45
2021/05/27 09:24:02;;;;;;;2.00;1.10;;;14.10;66.50;;;;;;5085815;28;20036;-45
2021/05/27 09:26:27;;;;;;;3.35;0.95;;;14.00;66.70;;;;;;5084153;28;20043;-45
2021/05/27 09:29:10;;;;;;;5.32;1.27;;;14.10;66.70;;;;;;5085623;28;20099;-46
2021/05/27 09:31:36;;;;;;;2.83;1.10;;;14.20;66.10;;;;;;5084775;28;20224;-45
2021/05/27 09:34:03;;;;;;;2.05;1.15;;;14.20;66.30;;;;;;5086348;28;20055;-47
2021/05/27 09:36:29;;;;;;;2.08;1.17;;;14.30;65.60;;;;;;5085920;28;20055;-46
2021/05/27 09:38:55;;;;;;;4.32;1.10;;;14.30;65.10;;;;;;5085689;28;20312;-44
2021/05/27 09:41:28;;;;;;;3.97;1.20;;;14.40;65.20;;;;;;5085588;28;20336;-45
2021/05/27 09:44:00;;;;;;;3.75;1.23;;;14.60;65.30;;;;;;5085461;28;20082;-45
2021/05/27 09:46:27;;;;;;;3.15;1.40;;;14.60;66.00;;;;;;5085081;28;20070;-46
2021/05/27 09:49:05;;;;;;;7.15;1.90;;;14.70;64.80;;;;;;5085980;28;20029;-45
2021/05/27 09:51:31;;;;;;;3.90;1.50;;;14.80;63.90;;;;;;5085387;28;20099;-49
2021/05/27 09:53:57;;;;;;;6.05;1.40;;;14.80;64.80;;;;;;5085360;28;20037;-47
2021/05/27 09:56:36;;;;;;;4.03;1.20;;;14.80;64.20;;;;;;5084982;28;20056;-45
2021/05/27 09:59:02;;;;;;;3.45;1.20;;;14.80;64.10;;;;;;5085128;28;20029;-45
2021/05/27 10:01:27;;;;;;;4.35;1.20;;;14.80;63.40;;;;;;5084328;28;20059;-48
2021/05/27 10:03:53;;;;;;;3.45;1.25;;;14.70;64.10;;;;;;5087075;28;20077;-47
2021/05/27 10:06:19;;;;;;;2.47;1.10;;;14.70;63.80;;;;;;5085216;28;20231;-46
2021/05/27 10:08:52;;;;;;;2.53;1.05;;;14.70;63.50;;;;;;5084704;28;20047;-46
2021/05/27 10:11:18;;;;;;;2.25;1.10;;;14.80;63.80;;;;;;5084961;28;20041;-45
2021/05/27 10:13:44;;;;;;;5.40;1.40;;;14.80;64.30;;;;;;5084774;28;20367;-46
2021/05/27 10:16:11;;;;;;;1.20;1.02;;;14.80;63.60;;;;;;5085984;28;20036;-49
2021/05/27 10:18:37;;;;;;;2.25;1.00;;;14.70;63.20;;;;;;5085046;28;20385;-46
2021/05/27 10:21:04;;;;;;;2.80;1.40;;;14.60;63.60;;;;;;5084838;28;20040;-46
2021/05/27 10:23:29;;;;;;;2.45;1.05;;;14.60;64.20;;;;;;5084186;28;20338;-45
2021/05/27 10:25:56;;;;;;;2.33;1.30;;;14.60;64.80;;;;;;5083682;28;20036;-45
2021/05/27 10:28:21;;;;;;;3.55;1.40;;;14.50;65.10;;;;;;5084435;28;20085;-47
2021/05/27 10:30:47;;;;;;;4.00;1.83;;;14.50;65.20;;;;;;5085142;28;20060;-45
2021/05/27 10:33:19;;;;;;;4.30;1.50;;;14.50;65.20;;;;;;5084822;28;20033;-46
2021/05/27 10:35:59;;;;;;;3.33;1.60;;;14.50;65.60;;;;;;5084480;28;20036;-46
2021/05/27 10:38:40;;;;;;;4.32;1.65;;;14.50;65.20;;;;;;5084421;28;20037;-45
2021/05/27 10:41:06;;;;;;;;;;;14.50;65.30;;;;;;5084762;28;20032;-46
2021/05/27 10:43:32;;;;;;;2.90;1.42;;;14.50;66.00;;;;;;5084421;28;19900;-46
2021/05/27 10:46:11;;;;;;;2.83;1.42;;;14.50;65.30;;;;;;5085759;28;20241;-47
2021/05/27 10:48:41;;;;;;;2.63;1.33;;;14.50;65.60;;;;;;5084376;28;20285;-45
2021/05/27 10:51:19;;;;;;;3.25;1.40;;;14.60;65.60;;;;;;5084353;28;20056;-45
2021/05/27 10:53:48;;;;;;;2.22;1.00;;;14.60;64.80;;;;;;5084268;28;20033;-46
2021/05/27 10:56:41;;;;;;;2.13;1.08;;;14.70;63.30;;;;;;5083969;28;20277;-45
2021/05/27 10:59:08;;;;;;;4.03;0.95;;;14.70;63.30;;;;;;5082094;28;20029;-46
2021/05/27 11:01:37;;;;;;;3.25;1.20;;;14.80;63.40;;;;;;5083634;28;21252;-45
2021/05/27 11:04:25;;;;;;;5.35;1.58;;;14.90;63.80;;;;;;5085661;28;20080;-46
2021/05/27 11:07:19;;;;;;;5.45;1.40;;;15.00;64.10;;;;;;5084551;28;20308;-46
2021/05/27 11:09:47;;;;;;;2.35;1.10;;;15.20;62.70;;;;;;5084537;28;20108;-50
2021/05/27 11:12:15;;;;;;;2.67;1.08;;;15.30;63.60;;;;;;5083769;28;20040;-46
2021/05/27 11:14:46;;;;;;;1.45;0.90;;;15.30;62.90;;;;;;5083170;28;20043;-45
2021/05/27 11:17:15;;;;;;;1.65;0.98;;;15.30;62.40;;;;;;5083485;28;20033;-47
2021/05/27 11:20:04;;;;;;;2.10;1.08;;;15.40;62.60;;;;;;5083350;28;20055;-46
2021/05/27 11:22:31;;;;;;;1.63;0.90;;;15.40;62.20;;;;;;5083310;28;20072;-44
2021/05/27 11:25:12;;;;;;;2.33;1.00;;;15.50;62.00;;;;;;5084873;28;20035;-46
2021/05/27 11:27:40;;;;;;;;;;;15.40;61.60;;;;;;5083888;28;20028;-45
2021/05/27 11:30:29;;;;;;;1.88;1.08;;;15.40;60.00;;;;;;5083429;28;19904;-46
2021/05/27 11:32:59;;;;;;;1.60;1.00;;;15.40;60.40;;;;;;5083569;28;20260;-45
2021/05/27 11:35:26;;;;;;;3.25;0.90;;;15.40;60.30;;;;;;5083226;28;20094;-46
2021/05/27 11:37:52;;;;;;;1.30;0.75;;;15.30;60.30;;;;;;5083465;28;20138;-45
2021/05/27 11:40:28;;;;;;;1.50;0.82;;;15.20;59.70;;;;;;5083190;28;20036;-45
2021/05/27 11:42:54;;;;;;;1.77;0.90;;;15.20;59.90;;;;;;5084685;28;20037;-46
2021/05/27 11:45:22;;;;;;;1.75;0.80;;;15.20;59.80;;;;;;5083028;28;20032;-47
2021/05/27 11:48:22;;;;;;;6.53;0.95;;;15.10;60.30;;;;;;5083052;28;20243;-46
2021/05/27 11:50:49;;;;;;;1.90;1.10;;;15.10;60.50;;;;;;5083244;28;20320;-45
2021/05/27 11:53:17;;;;;;;1.10;0.70;;;15.10;60.50;;;;;;5083000;28;20032;-46
2021/05/27 11:55:44;;;;;;;4.72;0.90;;;15.10;59.50;;;;;;5083077;28;20077;-45
2021/05/27 11:58:10;;;;;;;1.45;0.90;;;15.20;59.30;;;;;;5083132;28;20078;-45
2021/05/27 12:00:35;;;;;;;1.85;1.17;;;15.10;59.30;;;;;;5083137;28;20036;-45
2021/05/27 12:03:02;;;;;;;2.50;0.93;;;15.10;59.00;;;;;;5083122;28;20032;-48
2021/05/27 12:05:29;;;;;;;1.60;0.88;;;15.10;59.20;;;;;;5082883;28;20394;-46
2021/05/27 12:08:08;;;;;;;1.75;0.80;;;15.10;58.90;;;;;;5082650;28;20347;-47
2021/05/27 12:10:38;;;;;;;5.00;0.88;;;15.10;59.00;;;;;;5083115;28;20082;-45
2021/05/27 12:13:04;;;;;;;2.40;0.88;;;15.10;59.40;;;;;;5084829;28;20036;-48
2021/05/27 12:15:31;;;;;;;1.63;1.10;;;15.30;59.10;;;;;;5083252;28;20055;-46
2021/05/27 12:17:57;;;;;;;3.95;0.90;;;15.20;58.40;;;;;;5082764;28;20091;-46
2021/05/27 12:20:36;;;;;;;1.10;0.70;;;15.30;58.90;;;;;;5082535;28;20045;-45
2021/05/27 12:23:06;;;;;;;1.60;0.85;;;15.30;58.10;;;;;;5082208;28;20197;-46
2021/05/27 12:25:39;;;;;;;1.63;0.90;;;15.40;58.50;;;;;;5080955;28;20028;-46
2021/05/27 12:28:12;;;;;;;2.70;1.00;;;15.40;58.10;;;;;;5084508;28;20024;-47
2021/05/27 12:30:39;;;;;;;1.38;0.88;;;15.50;57.60;;;;;;5082825;28;20040;-48
2021/05/27 12:33:06;;;;;;;1.85;0.95;;;15.60;57.30;;;;;;5082779;28;20036;-47
2021/05/27 12:35:36;;;;;;;1.80;0.90;;;15.70;57.40;;;;;;5082377;28;20094;-46
2021/05/27 12:38:03;;;;;;;2.28;0.98;;;15.80;57.30;;;;;;5082071;28;20094;-45
2021/05/27 12:40:42;;;;;;;2.50;0.90;;;15.80;58.00;;;;;;5082216;28;20032;-46
2021/05/27 12:43:19;;;;;;;1.42;1.00;;;15.80;56.70;;;;;;5084514;28;20037;-45
2021/05/27 12:45:45;;;;;;;1.25;0.80;;;15.80;57.40;;;;;;5082499;28;20059;-45
2021/05/27 12:48:15;;;;;;;1.17;0.77;;;15.80;57.00;;;;;;5082363;28;20029;-46
2021/05/27 12:50:46;;;;;;;2.03;1.00;;;15.90;56.50;;;;;;5082145;28;20099;-45
2021/05/27 12:53:31;;;;;;;1.42;0.70;;;16.10;57.90;;;;;;5082405;28;20056;-46
2021/05/27 12:56:10;;;;;;;1.70;0.93;;;16.20;57.70;;;;;;5082413;28;20308;-45
2021/05/27 12:58:37;;;;;;;6.80;4.53;;;16.30;57.60;;;;;;5082590;28;20032;-45
2021/05/27 13:01:03;;;;;;;2.83;1.33;;;16.40;57.70;;;;;;5083687;28;20053;-49